sensor_id;sensor_type;location;lat;lon;timestamp;P1;durP1;ratioP1;P2;durP2;ratioP2
59408;SDS011;45213;32.654;-115.458;2022-11-20T00:01:27;5.28;;;1.27;;
59408;SDS011;45213;32.654;-115.458;2022-11-20T00:03:55;5.95;;;1.23;;
59408;SDS011;45213;32.654;-115.458;2022-11-20T00:06:24;5.60;;;1.50;;
59408;SDS011;45213;32.654;-115.458;2022-11-20T00:08:53;9.15;;;1.33;;
59408;SDS011;45213;32.654;-115.458;2022-11-20T00:11:22;8.65;;;1.20;;
59408;SDS011;45213;32.654;-115.458;2022-11-20T00:13:51;4.68;;;1.35;;
59408;SDS011;45213;32.654;-115.458;2022-11-20T00:16:24;9.30;;;1.75;;
59408;SDS011;45213;32.654;-115.458;2022-11-20T00:18:52;6.28;;;1.45;;
59408;SDS011;45213;32.654;-115.458;2022-11-20T00:21:25;8.82;;;1.48;;
59408;SDS011;45213;32.654;-115.458;2022-11-20T00:23:53;9.07;;;1.63;;
59408;SDS011;45213;32.654;-115.458;2022-11-20T00:26:22;7.05;;;1.80;;
59408;SDS011;45213;32.654;-115.458;2022-11-20T00:28:52;8.23;;;2.47;;
59408;SDS011;45213;32.654;-115.458;2022-11-20T00:31:20;6.85;;;2.10;;
59408;SDS011;45213;32.654;-115.458;2022-11-20T00:33:48;9.10;;;3.17;;
59408;SDS011;45213;32.654;-115.458;2022-11-20T00:36:18;9.75;;;3.80;;
59408;SDS011;45213;32.654;-115.458;2022-11-20T00:38:50;9.05;;;3.67;;
59408;SDS011;45213;32.654;-115.458;2022-11-20T00:41:18;9.98;;;4.00;;
59408;SDS011;45213;32.654;-115.458;2022-11-20T00:43:45;7.97;;;3.20;;
59408;SDS011;45213;32.654;-115.458;2022-11-20T00:46:14;11.27;;;4.10;;
59408;SDS011;45213;32.654;-115.458;2022-11-20T00:48:43;11.75;;;2.90;;
59408;SDS011;45213;32.654;-115.458;2022-11-20T00:51:38;11.52;;;2.72;;
59408;SDS011;45213;32.654;-115.458;2022-11-20T00:54:21;10.68;;;2.60;;
59408;SDS011;45213;32.654;-115.458;2022-11-20T00:56:48;15.38;;;1.98;;
59408;SDS011;45213;32.654;-115.458;2022-11-20T00:59:16;6.63;;;2.78;;
59408;SDS011;45213;32.654;-115.458;2022-11-20T01:02:05;12.45;;;3.65;;
59408;SDS011;45213;32.654;-115.458;2022-11-20T01:04:32;15.27;;;5.80;;
59408;SDS011;45213;32.654;-115.458;2022-11-20T01:07:00;14.30;;;5.32;;
59408;SDS011;45213;32.654;-115.458;2022-11-20T01:09:27;16.65;;;4.93;;
59408;SDS011;45213;32.654;-115.458;2022-11-20T01:12:03;13.25;;;3.70;;
59408;SDS011;45213;32.654;-115.458;2022-11-20T01:15:19;10.75;;;2.97;;
59408;SDS011;45213;32.654;-115.458;2022-11-20T01:21:17;12.00;;;5.68;;
59408;SDS011;45213;32.654;-115.458;2022-11-20T01:24:30;16.85;;;7.25;;
59408;SDS011;45213;32.654;-115.458;2022-11-20T01:27:14;15.63;;;7.53;;
59408;SDS011;45213;32.654;-115.458;2022-11-20T01:33:25;17.30;;;5.88;;
59408;SDS011;45213;32.654;-115.458;2022-11-20T01:39:37;12.50;;;7.32;;
59408;SDS011;45213;32.654;-115.458;2022-11-20T01:42:04;14.82;;;5.80;;
59408;SDS011;45213;32.654;-115.458;2022-11-20T01:44:51;11.07;;;4.30;;
59408;SDS011;45213;32.654;-115.458;2022-11-20T01:47:37;8.38;;;3.42;;
59408;SDS011;45213;32.654;-115.458;2022-11-20T01:53:02;14.02;;;2.90;;
59408;SDS011;45213;32.654;-115.458;2022-11-20T01:55:40;9.43;;;3.28;;
59408;SDS011;45213;32.654;-115.458;2022-11-20T01:58:12;9.98;;;3.92;;
59408;SDS011;45213;32.654;-115.458;2022-11-20T02:00:39;9.10;;;2.90;;
59408;SDS011;45213;32.654;-115.458;2022-11-20T02:03:08;6.60;;;2.10;;
59408;SDS011;45213;32.654;-115.458;2022-11-20T02:08:11;9.45;;;2.47;;
59408;SDS011;45213;32.654;-115.458;2022-11-20T02:10:38;9.40;;;1.80;;
59408;SDS011;45213;32.654;-115.458;2022-11-20T02:13:05;13.15;;;3.08;;
59408;SDS011;45213;32.654;-115.458;2022-11-20T02:15:50;9.55;;;3.85;;
59408;SDS011;45213;32.654;-115.458;2022-11-20T02:18:18;8.82;;;2.47;;
59408;SDS011;45213;32.654;-115.458;2022-11-20T02:20:52;8.98;;;2.65;;
59408;SDS011;45213;32.654;-115.458;2022-11-20T02:23:37;10.80;;;2.70;;
59408;SDS011;45213;32.654;-115.458;2022-11-20T02:26:10;7.30;;;2.05;;
59408;SDS011;45213;32.654;-115.458;2022-11-20T02:28:40;11.55;;;2.03;;
59408;SDS011;45213;32.654;-115.458;2022-11-20T02:31:10;12.25;;;2.88;;
59408;SDS011;45213;32.654;-115.458;2022-11-20T02:33:37;9.32;;;4.05;;
59408;SDS011;45213;32.654;-115.458;2022-11-20T02:36:04;13.85;;;5.50;;
59408;SDS011;45213;32.654;-115.458;2022-11-20T02:38:31;12.68;;;5.82;;
59408;SDS011;45213;32.654;-115.458;2022-11-20T02:40:58;25.85;;;6.70;;
59408;SDS011;45213;32.654;-115.458;2022-11-20T02:43:25;16.83;;;6.13;;
59408;SDS011;45213;32.654;-115.458;2022-11-20T02:45:53;16.83;;;7.00;;
59408;SDS011;45213;32.654;-115.458;2022-11-20T02:48:19;17.10;;;6.70;;
59408;SDS011;45213;32.654;-115.458;2022-11-20T02:50:47;25.30;;;8.02;;
59408;SDS011;45213;32.654;-115.458;2022-11-20T02:53:13;22.40;;;9.00;;
59408;SDS011;45213;32.654;-115.458;2022-11-20T02:55:40;22.77;;;8.73;;
59408;SDS011;45213;32.654;-115.458;2022-11-20T02:58:06;25.80;;;11.65;;
59408;SDS011;45213;32.654;-115.458;2022-11-20T03:00:33;23.73;;;10.65;;
59408;SDS011;45213;32.654;-115.458;2022-11-20T03:03:01;28.45;;;11.38;;
59408;SDS011;45213;32.654;-115.458;2022-11-20T03:05:28;26.50;;;11.18;;
59408;SDS011;45213;32.654;-115.458;2022-11-20T03:07:55;28.73;;;11.40;;
59408;SDS011;45213;32.654;-115.458;2022-11-20T03:10:22;30.25;;;11.73;;
59408;SDS011;45213;32.654;-115.458;2022-11-20T03:12:54;21.30;;;10.25;;
59408;SDS011;45213;32.654;-115.458;2022-11-20T03:15:24;20.65;;;9.05;;
59408;SDS011;45213;32.654;-115.458;2022-11-20T03:17:54;26.95;;;8.07;;
59408;SDS011;45213;32.654;-115.458;2022-11-20T03:20:21;29.45;;;8.65;;
59408;SDS011;45213;32.654;-115.458;2022-11-20T03:22:48;30.30;;;7.80;;
59408;SDS011;45213;32.654;-115.458;2022-11-20T03:25:16;31.70;;;7.40;;
59408;SDS011;45213;32.654;-115.458;2022-11-20T03:27:46;21.73;;;6.72;;
59408;SDS011;45213;32.654;-115.458;2022-11-20T03:30:17;23.23;;;6.95;;
59408;SDS011;45213;32.654;-115.458;2022-11-20T03:32:43;14.98;;;6.38;;
59408;SDS011;45213;32.654;-115.458;2022-11-20T03:35:12;22.40;;;7.30;;
59408;SDS011;45213;32.654;-115.458;2022-11-20T03:37:39;23.75;;;7.75;;
59408;SDS011;45213;32.654;-115.458;2022-11-20T03:40:09;21.20;;;6.43;;
59408;SDS011;45213;32.654;-115.458;2022-11-20T03:42:39;10.15;;;5.40;;
59408;SDS011;45213;32.654;-115.458;2022-11-20T03:45:14;13.70;;;4.72;;
59408;SDS011;45213;32.654;-115.458;2022-11-20T03:47:48;17.23;;;5.38;;
59408;SDS011;45213;32.654;-115.458;2022-11-20T03:50:18;17.55;;;4.65;;
59408;SDS011;45213;32.654;-115.458;2022-11-20T03:52:45;16.30;;;4.13;;
59408;SDS011;45213;32.654;-115.458;2022-11-20T03:55:12;21.95;;;3.70;;
59408;SDS011;45213;32.654;-115.458;2022-11-20T03:57:39;17.63;;;4.60;;
59408;SDS011;45213;32.654;-115.458;2022-11-20T04:00:07;16.02;;;4.80;;
59408;SDS011;45213;32.654;-115.458;2022-11-20T04:02:34;13.80;;;4.38;;
59408;SDS011;45213;32.654;-115.458;2022-11-20T04:05:01;13.13;;;4.82;;
59408;SDS011;45213;32.654;-115.458;2022-11-20T04:07:27;20.13;;;6.97;;
59408;SDS011;45213;32.654;-115.458;2022-11-20T04:09:54;45.47;;;7.00;;
59408;SDS011;45213;32.654;-115.458;2022-11-20T04:12:21;28.05;;;6.85;;
59408;SDS011;45213;32.654;-115.458;2022-11-20T04:14:51;22.42;;;6.30;;
59408;SDS011;45213;32.654;-115.458;2022-11-20T04:17:29;18.98;;;5.57;;
59408;SDS011;45213;32.654;-115.458;2022-11-20T04:19:59;27.52;;;7.57;;
59408;SDS011;45213;32.654;-115.458;2022-11-20T04:22:25;16.10;;;8.68;;
59408;SDS011;45213;32.654;-115.458;2022-11-20T04:24:52;19.30;;;7.90;;
59408;SDS011;45213;32.654;-115.458;2022-11-20T04:27:19;11.50;;;4.63;;
59408;SDS011;45213;32.654;-115.458;2022-11-20T04:29:47;8.60;;;3.45;;
59408;SDS011;45213;32.654;-115.458;2022-11-20T04:32:14;13.00;;;2.65;;
59408;SDS011;45213;32.654;-115.458;2022-11-20T04:34:41;7.53;;;2.17;;
59408;SDS011;45213;32.654;-115.458;2022-11-20T04:37:07;10.75;;;2.90;;
59408;SDS011;45213;32.654;-115.458;2022-11-20T04:39:40;9.75;;;2.20;;
59408;SDS011;45213;32.654;-115.458;2022-11-20T04:42:16;11.48;;;2.63;;
59408;SDS011;45213;32.654;-115.458;2022-11-20T04:44:55;16.73;;;3.20;;
59408;SDS011;45213;32.654;-115.458;2022-11-20T04:47:23;9.07;;;2.00;;
59408;SDS011;45213;32.654;-115.458;2022-11-20T04:49:50;13.43;;;2.92;;
59408;SDS011;45213;32.654;-115.458;2022-11-20T04:52:21;14.32;;;3.05;;
59408;SDS011;45213;32.654;-115.458;2022-11-20T04:55:33;20.33;;;2.95;;
59408;SDS011;45213;32.654;-115.458;2022-11-20T04:58:34;18.80;;;3.38;;
59408;SDS011;45213;32.654;-115.458;2022-11-20T05:01:42;42.75;;;6.10;;
59408;SDS011;45213;32.654;-115.458;2022-11-20T05:04:08;22.85;;;4.85;;
59408;SDS011;45213;32.654;-115.458;2022-11-20T05:06:35;21.25;;;4.70;;
59408;SDS011;45213;32.654;-115.458;2022-11-20T05:09:02;21.17;;;5.15;;
59408;SDS011;45213;32.654;-115.458;2022-11-20T05:11:29;19.67;;;5.57;;
59408;SDS011;45213;32.654;-115.458;2022-11-20T05:13:58;26.33;;;8.45;;
59408;SDS011;45213;32.654;-115.458;2022-11-20T05:16:25;19.98;;;7.70;;
59408;SDS011;45213;32.654;-115.458;2022-11-20T05:18:52;24.27;;;7.55;;
59408;SDS011;45213;32.654;-115.458;2022-11-20T05:21:20;31.27;;;7.95;;
59408;SDS011;45213;32.654;-115.458;2022-11-20T05:23:47;24.73;;;7.35;;
59408;SDS011;45213;32.654;-115.458;2022-11-20T05:26:15;18.15;;;6.75;;
59408;SDS011;45213;32.654;-115.458;2022-11-20T05:28:45;21.90;;;6.25;;
59408;SDS011;45213;32.654;-115.458;2022-11-20T05:31:16;10.98;;;3.92;;
59408;SDS011;45213;32.654;-115.458;2022-11-20T05:33:45;6.22;;;2.60;;
59408;SDS011;45213;32.654;-115.458;2022-11-20T05:36:12;8.10;;;2.70;;
59408;SDS011;45213;32.654;-115.458;2022-11-20T05:38:43;8.48;;;2.80;;
59408;SDS011;45213;32.654;-115.458;2022-11-20T05:41:14;8.48;;;2.33;;
59408;SDS011;45213;32.654;-115.458;2022-11-20T05:43:42;8.95;;;2.65;;
59408;SDS011;45213;32.654;-115.458;2022-11-20T05:46:11;7.47;;;2.15;;
59408;SDS011;45213;32.654;-115.458;2022-11-20T05:48:41;6.32;;;2.33;;
59408;SDS011;45213;32.654;-115.458;2022-11-20T05:51:10;6.28;;;3.38;;
59408;SDS011;45213;32.654;-115.458;2022-11-20T05:53:39;5.78;;;3.15;;
59408;SDS011;45213;32.654;-115.458;2022-11-20T05:56:07;10.40;;;4.35;;
59408;SDS011;45213;32.654;-115.458;2022-11-20T05:58:38;9.57;;;3.95;;
59408;SDS011;45213;32.654;-115.458;2022-11-20T06:01:10;11.32;;;4.22;;
59408;SDS011;45213;32.654;-115.458;2022-11-20T06:03:42;10.55;;;5.28;;
59408;SDS011;45213;32.654;-115.458;2022-11-20T06:06:13;9.15;;;3.35;;
59408;SDS011;45213;32.654;-115.458;2022-11-20T06:08:48;4.60;;;1.92;;
59408;SDS011;45213;32.654;-115.458;2022-11-20T06:11:19;4.05;;;1.60;;
59408;SDS011;45213;32.654;-115.458;2022-11-20T06:13:46;5.13;;;2.05;;
59408;SDS011;45213;32.654;-115.458;2022-11-20T06:16:23;2.45;;;1.33;;
59408;SDS011;45213;32.654;-115.458;2022-11-20T06:18:51;5.40;;;1.50;;
59408;SDS011;45213;32.654;-115.458;2022-11-20T06:21:19;3.85;;;1.23;;
59408;SDS011;45213;32.654;-115.458;2022-11-20T06:24:04;3.40;;;1.30;;
59408;SDS011;45213;32.654;-115.458;2022-11-20T06:26:32;5.68;;;1.60;;
59408;SDS011;45213;32.654;-115.458;2022-11-20T06:28:58;7.28;;;1.88;;
59408;SDS011;45213;32.654;-115.458;2022-11-20T06:31:35;9.35;;;3.10;;
59408;SDS011;45213;32.654;-115.458;2022-11-20T06:34:05;8.85;;;2.80;;
59408;SDS011;45213;32.654;-115.458;2022-11-20T06:36:33;3.33;;;1.80;;
59408;SDS011;45213;32.654;-115.458;2022-11-20T06:39:00;6.72;;;2.05;;
59408;SDS011;45213;32.654;-115.458;2022-11-20T06:41:33;5.60;;;1.70;;
59408;SDS011;45213;32.654;-115.458;2022-11-20T06:44:00;5.38;;;2.40;;
59408;SDS011;45213;32.654;-115.458;2022-11-20T06:46:27;4.72;;;1.55;;
59408;SDS011;45213;32.654;-115.458;2022-11-20T06:48:53;3.13;;;1.70;;
59408;SDS011;45213;32.654;-115.458;2022-11-20T06:51:20;5.22;;;1.73;;
59408;SDS011;45213;32.654;-115.458;2022-11-20T06:53:47;3.47;;;1.38;;
59408;SDS011;45213;32.654;-115.458;2022-11-20T06:56:14;5.57;;;1.40;;
59408;SDS011;45213;32.654;-115.458;2022-11-20T06:58:41;3.78;;;1.48;;
59408;SDS011;45213;32.654;-115.458;2022-11-20T07:01:12;4.80;;;1.50;;
59408;SDS011;45213;32.654;-115.458;2022-11-20T07:03:40;2.55;;;1.55;;
59408;SDS011;45213;32.654;-115.458;2022-11-20T07:06:08;3.50;;;1.50;;
59408;SDS011;45213;32.654;-115.458;2022-11-20T07:08:35;3.05;;;1.30;;
59408;SDS011;45213;32.654;-115.458;2022-11-20T07:11:02;11.93;;;2.60;;
59408;SDS011;45213;32.654;-115.458;2022-11-20T07:13:31;7.93;;;1.70;;
59408;SDS011;45213;32.654;-115.458;2022-11-20T07:15:59;7.47;;;1.92;;
59408;SDS011;45213;32.654;-115.458;2022-11-20T07:18:30;4.30;;;1.58;;
59408;SDS011;45213;32.654;-115.458;2022-11-20T07:21:07;4.68;;;1.40;;
59408;SDS011;45213;32.654;-115.458;2022-11-20T07:23:35;4.88;;;1.40;;
59408;SDS011;45213;32.654;-115.458;2022-11-20T07:26:11;4.65;;;1.65;;
59408;SDS011;45213;32.654;-115.458;2022-11-20T07:28:38;2.30;;;1.42;;
59408;SDS011;45213;32.654;-115.458;2022-11-20T07:31:04;6.25;;;1.60;;
59408;SDS011;45213;32.654;-115.458;2022-11-20T07:33:38;5.13;;;1.50;;
59408;SDS011;45213;32.654;-115.458;2022-11-20T07:36:20;11.55;;;2.60;;
59408;SDS011;45213;32.654;-115.458;2022-11-20T07:38:46;5.95;;;3.22;;
59408;SDS011;45213;32.654;-115.458;2022-11-20T07:41:14;8.95;;;2.88;;
59408;SDS011;45213;32.654;-115.458;2022-11-20T07:46:14;13.75;;;4.82;;
59408;SDS011;45213;32.654;-115.458;2022-11-20T07:48:44;9.50;;;4.47;;
59408;SDS011;45213;32.654;-115.458;2022-11-20T07:51:20;7.35;;;3.85;;
59408;SDS011;45213;32.654;-115.458;2022-11-20T07:53:50;8.73;;;3.70;;
59408;SDS011;45213;32.654;-115.458;2022-11-20T07:56:30;4.82;;;2.67;;
59408;SDS011;45213;32.654;-115.458;2022-11-20T07:58:56;6.75;;;2.40;;
59408;SDS011;45213;32.654;-115.458;2022-11-20T08:01:23;5.72;;;2.33;;
59408;SDS011;45213;32.654;-115.458;2022-11-20T08:03:50;7.00;;;2.38;;
59408;SDS011;45213;32.654;-115.458;2022-11-20T08:06:21;4.20;;;2.47;;
59408;SDS011;45213;32.654;-115.458;2022-11-20T08:08:48;4.07;;;2.20;;
59408;SDS011;45213;32.654;-115.458;2022-11-20T08:11:15;6.35;;;2.25;;
59408;SDS011;45213;32.654;-115.458;2022-11-20T08:14:00;4.18;;;1.90;;
59408;SDS011;45213;32.654;-115.458;2022-11-20T08:16:39;3.45;;;2.22;;
59408;SDS011;45213;32.654;-115.458;2022-11-20T08:19:08;6.50;;;2.38;;
59408;SDS011;45213;32.654;-115.458;2022-11-20T08:21:41;5.50;;;1.80;;
59408;SDS011;45213;32.654;-115.458;2022-11-20T08:24:19;5.53;;;2.03;;
59408;SDS011;45213;32.654;-115.458;2022-11-20T08:26:49;4.22;;;1.70;;
59408;SDS011;45213;32.654;-115.458;2022-11-20T08:29:16;10.05;;;2.10;;
59408;SDS011;45213;32.654;-115.458;2022-11-20T08:31:42;4.88;;;2.40;;
59408;SDS011;45213;32.654;-115.458;2022-11-20T08:34:24;5.72;;;2.10;;
59408;SDS011;45213;32.654;-115.458;2022-11-20T08:36:50;3.63;;;2.00;;
59408;SDS011;45213;32.654;-115.458;2022-11-20T08:39:17;4.05;;;1.80;;
59408;SDS011;45213;32.654;-115.458;2022-11-20T08:41:48;6.65;;;2.10;;
59408;SDS011;45213;32.654;-115.458;2022-11-20T08:44:18;6.25;;;2.10;;
59408;SDS011;45213;32.654;-115.458;2022-11-20T08:46:48;6.88;;;1.67;;
59408;SDS011;45213;32.654;-115.458;2022-11-20T08:49:20;5.90;;;1.70;;
59408;SDS011;45213;32.654;-115.458;2022-11-20T08:52:12;2.05;;;1.20;;
59408;SDS011;45213;32.654;-115.458;2022-11-20T08:54:42;6.80;;;1.15;;
59408;SDS011;45213;32.654;-115.458;2022-11-20T08:57:13;2.53;;;1.30;;
59408;SDS011;45213;32.654;-115.458;2022-11-20T08:59:39;4.35;;;1.20;;
59408;SDS011;45213;32.654;-115.458;2022-11-20T09:02:06;6.35;;;1.42;;
59408;SDS011;45213;32.654;-115.458;2022-11-20T09:04:33;4.22;;;1.40;;
59408;SDS011;45213;32.654;-115.458;2022-11-20T09:07:00;2.85;;;1.25;;
59408;SDS011;45213;32.654;-115.458;2022-11-20T09:09:37;4.28;;;1.20;;
59408;SDS011;45213;32.654;-115.458;2022-11-20T09:12:04;2.75;;;1.38;;
59408;SDS011;45213;32.654;-115.458;2022-11-20T09:14:36;3.10;;;1.02;;
59408;SDS011;45213;32.654;-115.458;2022-11-20T09:17:14;2.45;;;1.23;;
59408;SDS011;45213;32.654;-115.458;2022-11-20T09:19:48;4.15;;;1.15;;
59408;SDS011;45213;32.654;-115.458;2022-11-20T09:22:33;3.42;;;1.20;;
59408;SDS011;45213;32.654;-115.458;2022-11-20T09:25:14;2.60;;;1.30;;
59408;SDS011;45213;32.654;-115.458;2022-11-20T09:27:41;5.90;;;1.55;;
59408;SDS011;45213;32.654;-115.458;2022-11-20T09:30:12;5.00;;;1.20;;
59408;SDS011;45213;32.654;-115.458;2022-11-20T09:32:41;5.38;;;1.35;;
59408;SDS011;45213;32.654;-115.458;2022-11-20T09:35:09;5.05;;;1.45;;
59408;SDS011;45213;32.654;-115.458;2022-11-20T09:37:36;5.25;;;1.10;;
59408;SDS011;45213;32.654;-115.458;2022-11-20T09:40:03;2.70;;;1.40;;
59408;SDS011;45213;32.654;-115.458;2022-11-20T09:42:41;2.05;;;1.10;;
59408;SDS011;45213;32.654;-115.458;2022-11-20T09:45:18;3.42;;;1.50;;
59408;SDS011;45213;32.654;-115.458;2022-11-20T09:48:18;3.28;;;1.08;;
59408;SDS011;45213;32.654;-115.458;2022-11-20T09:56:00;4.10;;;1.80;;
59408;SDS011;45213;32.654;-115.458;2022-11-20T09:58:45;4.28;;;1.13;;
59408;SDS011;45213;32.654;-115.458;2022-11-20T10:01:17;6.13;;;1.23;;
59408;SDS011;45213;32.654;-115.458;2022-11-20T10:06:42;3.20;;;1.30;;
59408;SDS011;45213;32.654;-115.458;2022-11-20T10:09:21;2.60;;;1.30;;
59408;SDS011;45213;32.654;-115.458;2022-11-20T10:12:10;2.22;;;1.20;;
59408;SDS011;45213;32.654;-115.458;2022-11-20T10:17:48;2.65;;;1.80;;
59408;SDS011;45213;32.654;-115.458;2022-11-20T10:20:29;3.15;;;1.40;;
59408;SDS011;45213;32.654;-115.458;2022-11-20T10:23:28;2.45;;;1.40;;
59408;SDS011;45213;32.654;-115.458;2022-11-20T10:29:29;2.85;;;1.50;;
59408;SDS011;45213;32.654;-115.458;2022-11-20T10:32:15;3.88;;;1.67;;
59408;SDS011;45213;32.654;-115.458;2022-11-20T10:37:48;4.43;;;1.40;;
59408;SDS011;45213;32.654;-115.458;2022-11-20T10:40:27;4.68;;;1.50;;
59408;SDS011;45213;32.654;-115.458;2022-11-20T10:48:07;2.60;;;1.15;;
59408;SDS011;45213;32.654;-115.458;2022-11-20T10:50:46;2.15;;;1.10;;
59408;SDS011;45213;32.654;-115.458;2022-11-20T10:56:22;2.05;;;1.13;;
59408;SDS011;45213;32.654;-115.458;2022-11-20T10:59:26;3.58;;;1.10;;
59408;SDS011;45213;32.654;-115.458;2022-11-20T11:02:21;4.82;;;1.20;;
59408;SDS011;45213;32.654;-115.458;2022-11-20T11:08:03;2.17;;;0.93;;
59408;SDS011;45213;32.654;-115.458;2022-11-20T11:10:39;1.50;;;1.20;;
59408;SDS011;45213;32.654;-115.458;2022-11-20T11:13:20;1.58;;;1.20;;
59408;SDS011;45213;32.654;-115.458;2022-11-20T11:15:51;1.60;;;1.08;;
59408;SDS011;45213;32.654;-115.458;2022-11-20T11:18:25;1.45;;;1.00;;
59408;SDS011;45213;32.654;-115.458;2022-11-20T11:21:01;2.80;;;1.20;;
59408;SDS011;45213;32.654;-115.458;2022-11-20T11:23:37;1.77;;;0.90;;
59408;SDS011;45213;32.654;-115.458;2022-11-20T11:26:21;2.40;;;1.10;;
59408;SDS011;45213;32.654;-115.458;2022-11-20T11:28:53;5.95;;;1.50;;
59408;SDS011;45213;32.654;-115.458;2022-11-20T11:31:26;2.72;;;1.60;;
59408;SDS011;45213;32.654;-115.458;2022-11-20T11:34:07;2.88;;;1.15;;
59408;SDS011;45213;32.654;-115.458;2022-11-20T11:36:38;3.57;;;1.20;;
59408;SDS011;45213;32.654;-115.458;2022-11-20T11:39:08;2.60;;;1.20;;
59408;SDS011;45213;32.654;-115.458;2022-11-20T11:41:40;3.10;;;1.30;;
59408;SDS011;45213;32.654;-115.458;2022-11-20T11:44:20;3.63;;;1.05;;
59408;SDS011;45213;32.654;-115.458;2022-11-20T11:47:21;2.47;;;1.02;;
59408;SDS011;45213;32.654;-115.458;2022-11-20T11:50:02;3.22;;;1.10;;
59408;SDS011;45213;32.654;-115.458;2022-11-20T11:52:29;1.42;;;1.10;;
59408;SDS011;45213;32.654;-115.458;2022-11-20T11:55:02;2.38;;;1.10;;
59408;SDS011;45213;32.654;-115.458;2022-11-20T12:05:21;3.17;;;1.23;;
59408;SDS011;45213;32.654;-115.458;2022-11-20T12:16:16;2.47;;;1.00;;
59408;SDS011;45213;32.654;-115.458;2022-11-20T12:18:49;1.73;;;1.30;;
59408;SDS011;45213;32.654;-115.458;2022-11-20T12:21:19;5.10;;;1.20;;
59408;SDS011;45213;32.654;-115.458;2022-11-20T12:26:59;2.03;;;1.63;;
59408;SDS011;45213;32.654;-115.458;2022-11-20T12:29:45;3.65;;;1.73;;
59408;SDS011;45213;32.654;-115.458;2022-11-20T12:41:03;2.13;;;1.40;;
59408;SDS011;45213;32.654;-115.458;2022-11-20T12:47:34;2.65;;;1.10;;
59408;SDS011;45213;32.654;-115.458;2022-11-20T12:58:58;5.50;;;1.00;;
59408;SDS011;45213;32.654;-115.458;2022-11-20T13:04:19;3.00;;;0.90;;
59408;SDS011;45213;32.654;-115.458;2022-11-20T13:07:03;5.03;;;1.75;;
59408;SDS011;45213;32.654;-115.458;2022-11-20T13:09:38;2.67;;;1.08;;
59408;SDS011;45213;32.654;-115.458;2022-11-20T13:14:53;2.42;;;1.10;;
59408;SDS011;45213;32.654;-115.458;2022-11-20T13:20:29;2.13;;;1.15;;
59408;SDS011;45213;32.654;-115.458;2022-11-20T13:22:59;2.38;;;1.20;;
59408;SDS011;45213;32.654;-115.458;2022-11-20T13:25:33;2.78;;;1.20;;
59408;SDS011;45213;32.654;-115.458;2022-11-20T13:30:59;1.30;;;0.90;;
59408;SDS011;45213;32.654;-115.458;2022-11-20T13:33:33;3.75;;;1.00;;
59408;SDS011;45213;32.654;-115.458;2022-11-20T13:36:01;3.38;;;1.10;;
59408;SDS011;45213;32.654;-115.458;2022-11-20T13:38:44;2.85;;;1.10;;
59408;SDS011;45213;32.654;-115.458;2022-11-20T13:44:29;2.30;;;1.30;;
59408;SDS011;45213;32.654;-115.458;2022-11-20T13:50:13;3.80;;;1.10;;
59408;SDS011;45213;32.654;-115.458;2022-11-20T14:00:32;2.60;;;1.00;;
59408;SDS011;45213;32.654;-115.458;2022-11-20T14:05:36;3.05;;;1.35;;
59408;SDS011;45213;32.654;-115.458;2022-11-20T14:08:17;4.30;;;1.10;;
59408;SDS011;45213;32.654;-115.458;2022-11-20T14:11:03;3.33;;;1.10;;
59408;SDS011;45213;32.654;-115.458;2022-11-20T14:13:54;3.20;;;1.30;;
59408;SDS011;45213;32.654;-115.458;2022-11-20T14:16:39;3.72;;;1.10;;
59408;SDS011;45213;32.654;-115.458;2022-11-20T14:21:46;8.10;;;1.60;;
59408;SDS011;45213;32.654;-115.458;2022-11-20T14:24:22;4.68;;;2.83;;
59408;SDS011;45213;32.654;-115.458;2022-11-20T14:26:51;12.27;;;4.40;;
59408;SDS011;45213;32.654;-115.458;2022-11-20T14:29:20;13.75;;;6.75;;
59408;SDS011;45213;32.654;-115.458;2022-11-20T14:31:51;11.57;;;4.50;;
59408;SDS011;45213;32.654;-115.458;2022-11-20T14:34:27;12.82;;;5.90;;
59408;SDS011;45213;32.654;-115.458;2022-11-20T14:36:58;13.00;;;7.75;;
59408;SDS011;45213;32.654;-115.458;2022-11-20T14:41:58;15.60;;;10.57;;
59408;SDS011;45213;32.654;-115.458;2022-11-20T14:44:26;20.48;;;12.25;;
59408;SDS011;45213;32.654;-115.458;2022-11-20T14:46:59;22.08;;;13.45;;
59408;SDS011;45213;32.654;-115.458;2022-11-20T14:49:31;25.95;;;14.40;;
59408;SDS011;45213;32.654;-115.458;2022-11-20T14:52:02;24.75;;;16.02;;
59408;SDS011;45213;32.654;-115.458;2022-11-20T14:54:47;27.70;;;16.25;;
59408;SDS011;45213;32.654;-115.458;2022-11-20T14:57:23;23.27;;;15.32;;
59408;SDS011;45213;32.654;-115.458;2022-11-20T15:00:19;24.27;;;15.55;;
59408;SDS011;45213;32.654;-115.458;2022-11-20T15:02:47;21.48;;;12.23;;
59408;SDS011;45213;32.654;-115.458;2022-11-20T15:05:17;21.25;;;13.20;;
59408;SDS011;45213;32.654;-115.458;2022-11-20T15:07:47;21.92;;;13.00;;
59408;SDS011;45213;32.654;-115.458;2022-11-20T15:10:34;21.90;;;10.60;;
59408;SDS011;45213;32.654;-115.458;2022-11-20T15:13:03;12.88;;;8.13;;
59408;SDS011;45213;32.654;-115.458;2022-11-20T15:15:47;16.92;;;7.63;;
59408;SDS011;45213;32.654;-115.458;2022-11-20T15:18:21;12.65;;;6.20;;
59408;SDS011;45213;32.654;-115.458;2022-11-20T15:20:52;15.00;;;7.75;;
59408;SDS011;45213;32.654;-115.458;2022-11-20T15:23:21;14.38;;;6.53;;
59408;SDS011;45213;32.654;-115.458;2022-11-20T15:25:49;12.32;;;4.70;;
59408;SDS011;45213;32.654;-115.458;2022-11-20T15:28:18;13.02;;;3.08;;
59408;SDS011;45213;32.654;-115.458;2022-11-20T15:30:53;9.30;;;2.17;;
59408;SDS011;45213;32.654;-115.458;2022-11-20T15:33:21;5.68;;;2.10;;
59408;SDS011;45213;32.654;-115.458;2022-11-20T15:35:51;6.95;;;1.52;;
59408;SDS011;45213;32.654;-115.458;2022-11-20T15:38:19;4.90;;;1.20;;
59408;SDS011;45213;32.654;-115.458;2022-11-20T15:40:46;3.05;;;1.27;;
59408;SDS011;45213;32.654;-115.458;2022-11-20T15:43:13;5.63;;;1.52;;
59408;SDS011;45213;32.654;-115.458;2022-11-20T15:45:41;11.68;;;2.15;;
59408;SDS011;45213;32.654;-115.458;2022-11-20T15:50:57;7.05;;;1.27;;
59408;SDS011;45213;32.654;-115.458;2022-11-20T15:53:28;6.50;;;1.52;;
59408;SDS011;45213;32.654;-115.458;2022-11-20T15:55:55;4.20;;;1.27;;
59408;SDS011;45213;32.654;-115.458;2022-11-20T15:58:22;5.10;;;1.17;;
59408;SDS011;45213;32.654;-115.458;2022-11-20T16:00:50;1.00;;;0.80;;
59408;SDS011;45213;32.654;-115.458;2022-11-20T16:03:17;6.28;;;1.40;;
59408;SDS011;45213;32.654;-115.458;2022-11-20T16:05:44;3.25;;;0.90;;
59408;SDS011;45213;32.654;-115.458;2022-11-20T16:08:14;3.88;;;1.25;;
59408;SDS011;45213;32.654;-115.458;2022-11-20T16:10:41;2.20;;;1.17;;
59408;SDS011;45213;32.654;-115.458;2022-11-20T16:13:12;2.75;;;0.95;;
59408;SDS011;45213;32.654;-115.458;2022-11-20T16:15:59;2.85;;;1.05;;
59408;SDS011;45213;32.654;-115.458;2022-11-20T16:18:32;3.92;;;0.95;;
59408;SDS011;45213;32.654;-115.458;2022-11-20T16:20:59;3.95;;;0.90;;
59408;SDS011;45213;32.654;-115.458;2022-11-20T16:23:29;3.05;;;0.90;;
59408;SDS011;45213;32.654;-115.458;2022-11-20T16:25:56;2.97;;;0.90;;
59408;SDS011;45213;32.654;-115.458;2022-11-20T16:28:23;3.13;;;1.17;;
59408;SDS011;45213;32.654;-115.458;2022-11-20T16:30:50;2.45;;;0.93;;
59408;SDS011;45213;32.654;-115.458;2022-11-20T16:33:17;4.35;;;1.08;;
59408;SDS011;45213;32.654;-115.458;2022-11-20T16:35:44;1.35;;;1.08;;
59408;SDS011;45213;32.654;-115.458;2022-11-20T16:38:14;3.83;;;1.00;;